Time;durP1;ratioP1;P1;durP2;ratioP2;P2;SDS_P1;SDS_P2;PMS_P1;PMS_P2;Temp;Humidity;BMP_temperature;BMP_pressure;BME280_temperature;BME280_humidity;BME280_pressure;Samples;Min_cycle;Max_cycle;Signal;HPM_P1;HPM_P2
2023/10/10 00:01:07;;;;;;;17.02;12.07;;;;;;;10.95;100.00;101113.84;5026528;28;20077;-62
2023/10/10 00:03:38;;;;;;;17.92;12.85;;;;;;;10.92;100.00;101113.16;5023293;28;20080;-61
2023/10/10 00:06:08;;;;;;;14.10;11.52;;;;;;;10.91;100.00;101107.03;5012453;28;20550;-61
2023/10/10 00:08:40;;;;;;;15.48;12.35;;;;;;;10.94;100.00;101106.00;5023312;28;20050;-61
2023/10/10 00:11:14;;;;;;;18.02;11.88;;;;;;;10.94;100.00;101103.38;5025854;28;20056;-61
2023/10/10 00:13:52;;;;;;;13.00;10.93;;;;;;;10.92;100.00;101107.88;5019973;28;20049;-60
2023/10/10 00:16:27;;;;;;;13.93;10.73;;;;;;;10.90;100.00;101102.72;5022323;28;20072;-62
2023/10/10 00:18:56;;;;;;;13.82;10.50;;;;;;;10.93;100.00;101101.69;5026308;28;20073;-62
2023/10/10 00:21:23;;;;;;;13.27;10.65;;;;;;;10.91;100.00;101109.69;5028062;28;20041;-62
2023/10/10 00:23:53;;;;;;;12.20;10.55;;;;;;;10.90;100.00;101105.34;5021608;28;20057;-62
2023/10/10 00:26:23;;;;;;;12.40;9.90;;;;;;;10.89;100.00;101100.97;5026157;28;20518;-62
2023/10/10 00:28:54;;;;;;;13.18;10.30;;;;;;;10.87;100.00;101105.50;5027070;28;20103;-62
2023/10/10 00:31:22;;;;;;;11.80;9.40;;;;;;;10.89;100.00;101099.19;5021493;28;20452;-60
2023/10/10 00:33:51;;;;;;;11.18;8.25;;;;;;;10.88;100.00;101100.13;5027615;28;20050;-63
2023/10/10 00:36:37;;;;;;;9.35;8.23;;;;;;;10.85;100.00;101095.06;5022344;28;20081;-61
2023/10/10 00:41:44;;;;;;;10.27;8.10;;;;;;;10.83;100.00;101094.25;5027729;28;19975;-62
2023/10/10 00:44:14;;;;;;;10.40;8.23;;;;;;;10.81;100.00;101090.88;5028578;28;20054;-62
2023/10/10 00:46:42;;;;;;;10.90;7.88;;;;;;;10.74;100.00;101094.75;5025810;28;20095;-61
2023/10/10 00:49:13;;;;;;;9.38;7.68;;;;;;;10.73;100.00;101087.78;5010476;28;20084;-61
2023/10/10 00:51:46;;;;;;;9.50;8.50;;;;;;;10.73;100.00;101090.41;5029426;28;20076;-62
2023/10/10 00:56:54;;;;;;;10.43;8.82;;;;;;;10.74;100.00;101086.84;5010020;28;20529;-60
2023/10/10 00:59:29;;;;;;;9.23;8.25;;;;;;;10.74;100.00;101088.63;5009371;28;20084;-62
2023/10/10 01:01:56;;;;;;;9.95;8.75;;;;;;;10.74;100.00;101086.00;5010643;28;20073;-61
2023/10/10 01:04:37;;;;;;;10.15;9.02;;;;;;;10.73;100.00;101081.66;5008525;28;20088;-62
2023/10/10 01:07:09;;;;;;;11.57;9.30;;;;;;;10.75;100.00;101090.31;5026804;28;20419;-62
2023/10/10 01:09:51;;;;;;;9.93;8.63;;;;;;;10.77;100.00;101099.00;5022025;28;20049;-60
2023/10/10 01:12:19;;;;;;;9.43;8.35;;;;;;;10.80;100.00;101098.84;5027939;28;20144;-62
2023/10/10 01:14:46;;;;;;;8.60;7.65;;;;;;;10.78;100.00;101100.72;5026660;28;20085;-63
2023/10/10 01:17:13;;;;;;;10.32;8.07;;;;;;;10.76;100.00;101102.56;5022518;28;20132;-61
2023/10/10 01:19:48;;;;;;;10.77;7.88;;;;;;;10.77;100.00;101099.00;5022632;28;20054;-59
2023/10/10 01:22:37;;;;;;;10.02;8.48;;;;;;;10.75;100.00;101092.97;5022446;28;20073;-63
2023/10/10 01:25:28;;;;;;;11.15;8.13;;;;;;;10.76;100.00;101092.03;5016332;28;20093;-59
2023/10/10 01:27:55;;;;;;;9.38;8.40;;;;;;;10.78;100.00;101095.44;5025434;28;20080;-62
2023/10/10 01:30:43;;;;;;;9.00;8.05;;;;;;;10.81;100.00;101090.03;5026185;28;20519;-62
2023/10/10 01:33:17;;;;;;;8.45;7.47;;;;;;;10.81;100.00;101085.59;5012555;28;20091;-63
2023/10/10 01:35:52;;;;;;;9.32;7.88;;;;;;;10.83;100.00;101089.00;5024126;28;20690;-61
2023/10/10 01:38:38;;;;;;;8.77;7.28;;;;;;;10.83;100.00;101075.81;5026717;28;20050;-61
2023/10/10 01:41:15;;;;;;;8.82;7.15;;;;;;;10.82;100.00;101078.56;5010375;28;20053;-61
2023/10/10 01:43:53;;;;;;;10.13;7.50;;;;;;;10.84;100.00;101081.94;5022727;28;20054;-62
2023/10/10 01:46:27;;;;;;;8.50;7.50;;;;;;;10.85;100.00;101073.09;5025504;28;20682;-62
2023/10/10 01:48:56;;;;;;;9.18;8.05;;;;;;;10.86;100.00;101066.94;5026297;28;20132;-62
2023/10/10 01:51:29;;;;;;;9.25;7.45;;;;;;;10.83;100.00;101057.38;5024406;28;20053;-63
2023/10/10 01:53:58;;;;;;;7.32;6.63;;;;;;;10.78;100.00;101058.56;5022415;28;20141;-61
2023/10/10 01:56:28;;;;;;;8.02;6.28;;;;;;;10.77;100.00;101075.31;5026365;28;20510;-62
2023/10/10 01:58:55;;;;;;;9.68;6.15;;;;;;;10.68;100.00;101060.84;5022327;28;20143;-60
2023/10/10 02:01:27;;;;;;;8.52;6.43;;;;;;;10.67;100.00;101061.75;5023653;28;20084;-61
2023/10/10 02:03:54;;;;;;;9.57;8.00;;;;;;;10.71;100.00;101063.28;5026568;28;20054;-62
2023/10/10 02:06:25;;;;;;;13.63;9.95;;;;;;;10.74;100.00;101054.41;5027786;28;20077;-61
2023/10/10 02:08:54;;;;;;;18.17;13.82;;;;;;;10.73;100.00;101061.44;5025906;28;20132;-62
2023/10/10 02:11:26;;;;;;;20.02;14.63;;;;;;;10.73;100.00;101064.09;5023983;28;20571;-62
2023/10/10 02:13:54;;;;;;;19.67;14.25;;;;;;;10.75;100.00;101061.38;5025364;28;20092;-60
2023/10/10 02:16:31;;;;;;;20.25;14.10;;;;;;;10.76;100.00;101060.41;5020596;28;20084;-62
2023/10/10 02:19:15;;;;;;;18.65;14.60;;;;;;;10.79;100.00;101053.22;5025704;28;20132;-61
2023/10/10 02:21:47;;;;;;;20.00;15.10;;;;;;;10.80;100.00;101060.19;5028045;28;20092;-62
2023/10/10 02:26:57;;;;;;;24.65;15.93;;;;;;;10.81;100.00;101056.63;5026214;28;20172;-61
2023/10/10 02:32:06;;;;;;;23.20;15.02;;;;;;;10.81;100.00;101063.69;5025300;28;20041;-61
2023/10/10 02:34:43;;;;;;;22.20;14.48;;;;;;;10.83;100.00;101059.19;5024599;28;20077;-60
2023/10/10 02:37:41;;;;;;;22.55;14.13;;;;;;;10.83;100.00;101070.56;5024446;28;20140;-63
2023/10/10 02:40:16;;;;;;;21.00;13.15;;;;;;;10.86;100.00;101075.69;5021749;28;20072;-62
2023/10/10 02:42:50;;;;;;;16.33;11.35;;;;;;;10.85;100.00;101065.19;5026248;28;20049;-61
2023/10/10 02:45:27;;;;;;;15.57;10.48;;;;;;;10.86;100.00;101070.41;5023388;28;20081;-61
2023/10/10 02:47:55;;;;;;;18.92;9.68;;;;;;;10.88;100.00;101073.81;5025377;28;20108;-62
2023/10/10 02:50:41;;;;;;;12.95;9.15;;;;;;;10.90;100.00;101069.31;5028109;28;20140;-62
2023/10/10 02:53:08;;;;;;;12.10;9.30;;;;;;;10.91;100.00;101070.16;5027807;28;20093;-60
2023/10/10 02:55:40;;;;;;;13.27;9.35;;;;;;;10.91;100.00;101064.91;5021631;28;20155;-62
2023/10/10 02:58:21;;;;;;;13.10;9.68;;;;;;;10.95;100.00;101068.22;5032435;28;20125;-61
2023/10/10 03:00:52;;;;;;;17.05;8.77;;;;;;;10.96;100.00;101054.13;5031672;28;20120;-62
2023/10/10 03:03:20;;;;;;;11.43;8.80;;;;;;;10.95;100.00;101053.25;5039347;28;20088;-62
2023/10/10 03:05:50;;;;;;;15.75;9.27;;;;;;;10.95;100.00;101050.63;5027220;28;20080;-61
2023/10/10 03:11:00;;;;;;;10.63;7.38;;;;;;;11.00;100.00;101037.22;5021652;28;20050;-61
2023/10/10 03:13:36;;;;;;;12.63;8.93;;;;;;;10.99;100.00;101030.25;5019306;28;20057;-61
2023/10/10 03:16:41;;;;;;;13.48;8.82;;;;;;;11.02;100.00;101030.06;5021980;28;20118;-60
2023/10/10 03:27:48;;;;;;;13.10;8.15;;;;;;;11.07;100.00;101038.56;5007732;28;20085;-59
2023/10/10 03:29:50;;;;;;;10.15;7.82;;;;;;;11.09;100.00;101044.63;5015263;28;20392;-62
2023/10/10 03:32:45;;;;;;;13.82;9.40;;;;;;;11.08;100.00;101043.78;5015804;28;20123;-61
2023/10/10 03:35:33;;;;;;;13.23;8.75;;;;;;;11.09;100.00;101047.25;5006652;28;20407;-62
2023/10/10 03:38:26;;;;;;;12.77;8.35;;;;;;;11.08;100.00;101045.56;5024462;28;20123;-61
2023/10/10 05:23:34;;;;;;;10.25;7.75;;;;;;;11.86;100.00;101062.31;5025168;28;20140;-62
2023/10/10 05:26:02;;;;;;;;;;;;;;;11.88;100.00;101070.97;5021491;28;20092;-61
2023/10/10 05:28:32;;;;;;;11.50;8.82;;;;;;;11.91;100.00;101069.03;5022105;28;20395;-61
2023/10/10 05:31:02;;;;;;;10.80;8.43;;;;;;;11.95;100.00;101079.41;5018960;28;20077;-60
2023/10/10 05:33:30;;;;;;;14.52;9.43;;;;;;;11.99;100.00;101076.50;5022680;28;20636;-60
2023/10/10 05:35:59;;;;;;;11.32;7.57;;;;;;;12.01;100.00;101073.75;5019752;28;20486;-59
2023/10/10 05:38:26;;;;;;;10.07;8.82;;;;;;;12.02;100.00;101070.19;5017418;28;20156;-61
2023/10/10 05:40:56;;;;;;;9.93;8.07;;;;;;;12.04;100.00;101073.59;5017237;28;20128;-62
2023/10/10 05:43:31;;;;;;;11.13;8.40;;;;;;;12.08;100.00;101075.13;5025966;28;20076;-62
2023/10/10 05:45:58;;;;;;;11.80;8.40;;;;;;;12.11;100.00;101070.53;5022760;28;20125;-60
2023/10/10 05:48:31;;;;;;;15.45;9.38;;;;;;;12.13;100.00;101071.25;5020087;28;20129;-61
2023/10/10 05:51:03;;;;;;;11.15;8.77;;;;;;;12.18;100.00;101075.44;5021166;28;20141;-61
2023/10/10 05:53:33;;;;;;;12.55;9.23;;;;;;;12.22;100.00;101072.53;5014929;28;20081;-61
2023/10/10 05:56:12;;;;;;;12.90;8.65;;;;;;;12.27;100.00;101077.53;5026057;28;20128;-60
2023/10/10 05:58:44;;;;;;;14.90;9.68;;;;;;;12.27;100.00;101085.44;5023341;28;20137;-61
2023/10/10 06:01:13;;;;;;;11.30;8.45;;;;;;;12.29;100.00;101086.19;5023362;28;20353;-61
2023/10/10 06:03:41;;;;;;;13.95;10.05;;;;;;;12.35;100.00;101086.69;5019397;28;20085;-61
2023/10/10 06:06:13;;;;;;;12.23;9.88;;;;;;;12.42;100.00;101089.81;5024726;28;20052;-61
2023/10/10 06:08:44;;;;;;;13.23;10.48;;;;;;;12.46;100.00;101091.34;5002599;28;20049;-60
2023/10/10 06:11:14;;;;;;;13.10;10.20;;;;;;;12.51;100.00;101091.91;5018599;28;20452;-61
2023/10/10 06:13:43;;;;;;;14.93;10.00;;;;;;;12.53;100.00;101097.97;5018806;28;20072;-61
2023/10/10 06:16:12;;;;;;;14.18;10.90;;;;;;;12.54;100.00;101099.66;5025645;28;20124;-61
2023/10/10 06:18:49;;;;;;;14.82;9.73;;;;;;;12.56;100.00;101099.56;5024596;28;20228;-63
2023/10/10 06:21:18;;;;;;;13.52;9.98;;;;;;;12.60;100.00;101101.91;5024007;28;20152;-61
2023/10/10 06:23:45;;;;;;;14.20;9.75;;;;;;;12.65;100.00;101105.16;5020911;28;20158;-59
2023/10/10 06:26:13;;;;;;;14.18;9.52;;;;;;;12.70;100.00;101112.81;5022495;28;20129;-58
2023/10/10 06:28:47;;;;;;;15.70;9.93;;;;;;;12.76;100.00;101107.16;5024467;28;20080;-60
2023/10/10 06:31:19;;;;;;;18.10;10.43;;;;;;;12.80;100.00;101113.09;5024571;28;20539;-62
2023/10/10 06:33:51;;;;;;;16.10;9.82;;;;;;;12.87;100.00;101117.91;5022195;28;20483;-62
2023/10/10 06:39:17;;;;;;;11.73;8.80;;;;;;;13.00;100.00;101118.00;5024708;28;20077;-61
2023/10/10 06:41:48;;;;;;;11.90;9.45;;;;;;;12.99;100.00;101113.69;5014966;28;20136;-62
2023/10/10 06:47:08;;;;;;;12.68;8.80;;;;;;;13.14;100.00;101128.59;5026818;28;20049;-62
2023/10/10 06:49:55;;;;;;;15.77;7.40;;;;;;;13.24;100.00;101128.03;5020426;28;20049;-60
2023/10/10 06:52:27;;;;;;;14.13;7.00;;;;;;;13.28;100.00;101133.06;5017664;28;20109;-61
2023/10/10 06:54:56;;;;;;;16.33;7.47;;;;;;;13.31;100.00;101129.38;5020141;28;20175;-62
2023/10/10 06:57:38;;;;;;;15.32;7.10;;;;;;;13.34;100.00;101126.56;5023570;28;20069;-63
2023/10/10 07:02:48;;;;;;;12.35;6.35;;;;;;;13.48;100.00;101123.03;5023890;28;20108;-60
2023/10/10 07:05:18;;;;;;;10.95;6.18;;;;;;;13.50;100.00;101127.28;5024046;28;20180;-60
2023/10/10 07:07:52;;;;;;;10.52;6.47;;;;;;;13.59;100.00;101124.03;5027632;28;20093;-61
2023/10/10 07:10:26;;;;;;;8.60;5.55;;;;;;;13.58;100.00;101132.09;5027884;28;20132;-60
2023/10/10 07:12:54;;;;;;;10.10;5.47;;;;;;;13.63;100.00;101137.94;5023510;28;20049;-61
2023/10/10 07:15:21;;;;;;;9.93;6.20;;;;;;;13.71;100.00;101140.09;5009594;28;20089;-60
2023/10/10 07:17:49;;;;;;;22.20;7.03;;;;;;;13.68;100.00;101143.78;5028372;28;20132;-62
2023/10/10 07:22:45;;;;;;;11.68;6.13;;;;;;;13.58;100.00;101142.66;5016474;28;20049;-60
2023/10/10 07:25:31;;;;;;;15.23;6.82;;;;;;;13.56;100.00;101144.56;5007594;28;20061;-60
2023/10/10 07:28:04;;;;;;;11.02;5.40;;;;;;;13.63;100.00;101138.78;5025666;28;20045;-60
2023/10/10 07:30:35;;;;;;;8.68;5.38;;;;;;;13.70;100.00;101147.19;5022042;28;20054;-60
2023/10/10 07:33:03;;;;;;;14.27;6.22;;;;;;;13.64;100.00;101145.78;5023043;28;20057;-59
2023/10/10 07:35:36;;;;;;;17.40;7.28;;;;;;;13.53;100.00;101147.41;5026966;28;20140;-58
2023/10/10 07:38:03;;;;;;;13.02;7.32;;;;;;;13.67;100.00;101148.22;5028667;28;20064;-60
2023/10/10 07:40:31;;;;;;;13.82;7.25;;;;;;;13.67;100.00;101145.56;5026786;28;20096;-62
2023/10/10 07:42:59;;;;;;;12.55;5.78;;;;;;;13.76;100.00;101144.13;5027845;28;20084;-60
2023/10/10 07:45:28;;;;;;;14.20;7.18;;;;;;;13.78;100.00;101149.31;5029847;28;20144;-62
2023/10/10 07:53:33;;;;;;;9.07;6.45;;;;;;;13.71;100.00;101151.53;5000156;28;20141;-59
2023/10/10 07:56:03;;;;;;;15.38;7.93;;;;;;;13.78;100.00;101165.19;5028983;28;20586;-59
2023/10/10 08:01:20;;;;;;;9.80;7.65;;;;;;;13.92;100.00;101154.59;5022964;28;20148;-61
2023/10/10 08:03:48;;;;;;;17.58;8.02;;;;;;;13.92;100.00;101147.50;5006999;28;20133;-60
2023/10/10 08:06:18;;;;;;;10.45;7.30;;;;;;;13.98;100.00;101161.28;5024769;28;20065;-60
2023/10/10 08:08:48;;;;;;;9.63;6.68;;;;;;;13.97;100.00;101157.81;5013695;28;20567;-59
2023/10/10 08:11:25;;;;;;;16.52;7.43;;;;;;;14.08;100.00;101157.94;5025718;28;20125;-61
2023/10/10 08:13:52;;;;;;;11.85;8.30;;;;;;;14.03;100.00;101160.03;5032221;28;20085;-59
2023/10/10 08:16:21;;;;;;;11.65;7.60;;;;;;;14.04;100.00;101153.78;5012463;28;20109;-62
2023/10/10 08:18:53;;;;;;;12.10;7.55;;;;;;;14.01;100.00;101159.31;5045066;28;20057;-58
2023/10/10 08:21:23;;;;;;;10.60;7.75;;;;;;;14.23;100.00;101152.59;5042270;28;20072;-60
2023/10/10 08:23:56;;;;;;;13.20;7.32;;;;;;;14.23;100.00;101155.22;5039941;28;20087;-61
2023/10/10 08:26:29;;;;;;;11.85;6.88;;;;;;;14.24;100.00;101152.50;5024625;28;20053;-59
2023/10/10 08:28:56;;;;;;;10.23;6.72;;;;;;;14.19;100.00;101159.91;5027802;28;20595;-58
2023/10/10 08:31:23;;;;;;;9.98;6.25;;;;;;;14.41;100.00;101168.13;5026455;28;20058;-59
2023/10/10 08:33:51;;;;;;;9.48;5.82;;;;;;;14.39;100.00;101163.88;5026852;28;20488;-59
2023/10/10 08:36:25;;;;;;;9.25;6.55;;;;;;;14.36;100.00;101164.06;5027399;28;20049;-59
2023/10/10 08:38:57;;;;;;;9.50;5.82;;;;;;;14.49;100.00;101157.03;5026006;28;20513;-61
2023/10/10 08:41:31;;;;;;;10.43;5.65;;;;;;;14.57;100.00;101170.63;5026283;28;20053;-60
2023/10/10 08:44:01;;;;;;;6.72;5.80;;;;;;;14.65;100.00;101168.31;5025815;28;20486;-59
2023/10/10 08:46:32;;;;;;;6.07;4.88;;;;;;;14.77;100.00;101165.78;5008944;28;20107;-61
2023/10/10 08:49:00;;;;;;;6.93;4.68;;;;;;;14.81;100.00;101167.28;5025835;28;20555;-61
2023/10/10 08:51:33;;;;;;;8.82;4.88;;;;;;;14.75;100.00;101165.91;5025658;28;20067;-61
2023/10/10 08:54:11;;;;;;;8.25;4.75;;;;;;;14.68;100.00;101162.81;5024237;28;20064;-62
2023/10/10 08:56:59;;;;;;;6.82;4.10;;;;;;;14.52;100.00;101167.44;5026539;28;20087;-60
2023/10/10 08:59:28;;;;;;;6.45;3.92;;;;;;;14.63;100.00;101164.94;5027399;28;20076;-58
2023/10/10 09:02:07;;;;;;;5.18;3.85;;;;;;;14.65;100.00;101167.47;5019475;28;20057;-60
2023/10/10 09:04:34;;;;;;;8.15;4.35;;;;;;;14.63;100.00;101175.53;5023276;28;20686;-61
2023/10/10 09:07:08;;;;;;;11.35;4.50;;;;;;;14.63;100.00;101172.88;5022706;28;20079;-60
2023/10/10 09:09:43;;;;;;;5.78;3.65;;;;;;;14.61;100.00;101169.47;5009383;28;20053;-61
2023/10/10 09:12:14;;;;;;;7.13;3.60;;;;;;;14.78;100.00;101163.03;5021356;28;20476;-61
2023/10/10 09:14:43;;;;;;;6.05;3.42;;;;;;;14.86;100.00;101157.19;5021400;28;20141;-61
2023/10/10 09:17:35;;;;;;;7.07;4.00;;;;;;;14.99;100.00;101152.75;5023606;28;21389;-60
2023/10/10 09:20:22;;;;;;;7.00;3.88;;;;;;;15.34;100.00;101166.22;5020896;28;20053;-61
2023/10/10 09:23:11;;;;;;;4.88;3.15;;;;;;;15.40;100.00;101163.16;5025281;28;20092;-61
2023/10/10 09:25:43;;;;;;;7.60;3.47;;;;;;;15.44;100.00;101163.75;5025142;28;20132;-60
2023/10/10 09:28:15;;;;;;;5.28;3.58;;;;;;;15.47;100.00;101168.00;5024389;28;20831;-60
2023/10/10 09:30:50;;;;;;;4.00;2.75;;;;;;;15.37;100.00;101167.81;5023727;28;20080;-59
2023/10/10 09:33:27;;;;;;;7.53;3.33;;;;;;;15.39;100.00;101176.50;5027581;28;20077;-59
2023/10/10 09:36:09;;;;;;;5.75;2.53;;;;;;;15.43;100.00;101167.38;5004543;28;20052;-61
2023/10/10 09:38:43;;;;;;;5.35;3.15;;;;;;;15.51;100.00;101161.53;5025267;28;20061;-60
2023/10/10 09:55:39;;;;;;;6.28;3.00;;;;;;;15.77;100.00;101171.19;5001228;28;20073;-62
2023/10/10 10:06:06;;;;;;;4.15;2.40;;;;;;;16.14;100.00;101179.13;5025320;28;20128;-62
2023/10/10 10:08:42;;;;;;;3.42;2.30;;;;;;;16.24;98.99;101180.13;5023286;28;20066;-62
2023/10/10 10:11:25;;;;;;;3.30;2.30;;;;;;;16.12;99.73;101181.91;5024181;28;20583;-60
2023/10/10 10:14:11;;;;;;;5.22;2.35;;;;;;;15.89;99.81;101180.88;5007663;28;20073;-62
2023/10/10 10:16:47;;;;;;;5.35;2.75;;;;;;;15.89;100.00;101185.34;5023893;28;20069;-60
2023/10/10 10:19:15;;;;;;;4.32;2.33;;;;;;;15.76;100.00;101174.78;5026585;28;20100;-59
2023/10/10 10:22:07;;;;;;;4.25;2.47;;;;;;;15.82;100.00;101184.97;5021805;28;20084;-61
2023/10/10 10:24:46;;;;;;;6.95;2.13;;;;;;;15.79;100.00;101186.97;5024268;28;20135;-59
2023/10/10 10:27:31;;;;;;;5.80;2.17;;;;;;;15.59;100.00;101185.72;5023148;28;20057;-59
2023/10/10 10:32:39;;;;;;;4.32;2.13;;;;;;;15.56;100.00;101189.44;5027127;28;20069;-61
2023/10/10 10:35:12;;;;;;;5.80;2.50;;;;;;;15.46;100.00;101196.34;5025636;28;20073;-60
2023/10/10 10:37:40;;;;;;;8.00;2.20;;;;;;;15.65;100.00;101193.28;5022564;28;20160;-61
2023/10/10 10:42:47;;;;;;;5.63;2.58;;;;;;;15.80;100.00;101186.84;5023416;28;20065;-62
2023/10/10 10:45:33;;;;;;;8.68;2.55;;;;;;;15.72;100.00;101196.34;5010680;28;20487;-60
2023/10/10 10:48:07;;;;;;;5.00;2.15;;;;;;;15.85;100.00;101183.88;5025036;28;20090;-61
2023/10/10 10:50:40;;;;;;;4.25;2.13;;;;;;;15.95;100.00;101184.94;5026664;28;20972;-61
2023/10/10 10:53:40;;;;;;;5.32;2.42;;;;;;;15.80;100.00;101175.41;5016618;28;20057;-60
2023/10/10 11:01:26;;;;;;;5.85;2.08;;;;;;;15.74;100.00;101175.84;5021315;28;20073;-60
2023/10/10 11:03:55;;;;;;;5.25;2.75;;;;;;;15.82;100.00;101168.19;5026140;28;20065;-60
2023/10/10 11:06:26;;;;;;;5.55;3.17;;;;;;;15.78;100.00;101169.38;5021433;28;20236;-61
2023/10/10 11:09:06;;;;;;;7.38;2.88;;;;;;;15.89;100.00;101175.56;5022894;28;20072;-60
2023/10/10 11:14:10;;;;;;;5.43;3.15;;;;;;;15.99;100.00;101169.63;5022228;28;20081;-61
2023/10/10 11:16:38;;;;;;;6.82;3.00;;;;;;;15.84;100.00;101167.09;5023905;28;20109;-60
2023/10/10 11:19:25;;;;;;;9.43;3.22;;;;;;;15.80;100.00;101165.63;5018521;28;20151;-61
2023/10/10 11:21:55;;;;;;;9.02;3.78;;;;;;;15.92;100.00;101175.38;5015825;28;20069;-61
2023/10/10 11:24:25;;;;;;;8.15;3.20;;;;;;;15.95;100.00;101171.66;5023702;28;20077;-61
2023/10/10 11:27:29;;;;;;;6.20;3.72;;;;;;;15.60;100.00;101174.16;4998561;28;20050;-58
2023/10/10 11:29:50;;;;;;;;;;;;;;;15.52;100.00;101174.69;5016521;28;20144;-59
2023/10/10 11:32:29;;;;;;;5.20;2.92;;;;;;;15.48;100.00;101178.50;5026133;28;20435;-59
2023/10/10 11:35:17;;;;;;;6.15;3.50;;;;;;;15.42;100.00;101171.84;5021503;28;20075;-61
2023/10/10 11:37:47;;;;;;;8.07;3.72;;;;;;;15.47;100.00;101170.66;5022419;28;20658;-61
2023/10/10 11:43:05;;;;;;;6.65;3.30;;;;;;;15.46;100.00;101164.50;5022298;28;20193;-62
2023/10/10 11:45:51;;;;;;;6.22;3.15;;;;;;;15.57;100.00;101169.06;5020768;28;20145;-60
2023/10/10 11:48:19;;;;;;;6.20;3.22;;;;;;;15.45;100.00;101162.81;5004593;28;20132;-60
2023/10/10 11:50:51;;;;;;;6.88;2.70;;;;;;;15.32;100.00;101165.50;5024695;28;20146;-60
2023/10/10 11:53:23;;;;;;;5.50;3.30;;;;;;;15.37;100.00;101158.06;5023638;28;20128;-61
2023/10/10 11:55:52;;;;;;;7.22;2.92;;;;;;;15.47;100.00;101154.75;5024011;28;20077;-61
2023/10/10 11:58:19;;;;;;;10.95;3.33;;;;;;;15.49;100.00;101150.16;5026350;28;20128;-60
2023/10/10 12:01:04;;;;;;;11.90;3.17;;;;;;;15.47;100.00;101152.94;5022457;28;20149;-61
2023/10/10 12:03:41;;;;;;;3.83;2.67;;;;;;;15.53;100.00;101156.94;5019895;28;20193;-62
2023/10/10 12:06:16;;;;;;;6.70;3.05;;;;;;;15.68;100.00;101151.44;5024292;28;20614;-60
2023/10/10 12:08:50;;;;;;;7.25;2.90;;;;;;;15.50;100.00;101152.72;5021110;28;20080;-60
2023/10/10 12:11:21;;;;;;;8.57;2.75;;;;;;;15.62;100.00;101151.84;5018619;28;20157;-62
2023/10/10 12:13:50;;;;;;;7.68;2.20;;;;;;;15.83;100.00;101154.78;5019742;28;20057;-61
2023/10/10 12:16:23;;;;;;;9.85;3.67;;;;;;;15.95;100.00;101161.03;5027108;28;20077;-60
2023/10/10 12:18:52;;;;;;;8.32;3.13;;;;;;;16.12;100.00;101155.34;5015962;28;20068;-61
2023/10/10 12:21:22;;;;;;;6.05;2.70;;;;;;;16.25;100.00;101144.63;5008890;28;20447;-61
2023/10/10 12:23:57;;;;;;;8.23;2.78;;;;;;;16.43;100.00;101140.59;5022230;28;20177;-61
2023/10/10 12:26:29;;;;;;;7.53;2.70;;;;;;;16.22;100.00;101138.72;5028672;28;20076;-60
2023/10/10 12:28:58;;;;;;;5.60;3.08;;;;;;;16.22;100.00;101144.03;5005337;28;20085;-62
2023/10/10 12:31:25;;;;;;;4.93;2.70;;;;;;;16.00;100.00;101134.13;5026770;28;20142;-60
2023/10/10 12:33:55;;;;;;;7.22;2.72;;;;;;;16.13;100.00;101129.63;5021765;28;20145;-57
2023/10/10 12:36:28;;;;;;;3.45;2.30;;;;;;;16.19;100.00;101129.16;5027074;28;20136;-59
2023/10/10 12:38:57;;;;;;;5.15;2.25;;;;;;;16.29;100.00;101132.81;5024308;28;20178;-60
2023/10/10 12:41:26;;;;;;;5.55;2.70;;;;;;;16.38;100.00;101120.63;5026335;28;20042;-60
2023/10/10 12:43:54;;;;;;;5.63;2.55;;;;;;;16.47;100.00;101127.91;5026584;28;20081;-60
2023/10/10 12:46:21;;;;;;;3.70;2.50;;;;;;;16.38;100.00;101123.28;5024813;28;20087;-61
2023/10/10 12:48:53;;;;;;;4.10;2.13;;;;;;;16.32;100.00;101134.41;5027327;28;20069;-60
2023/10/10 12:51:23;;;;;;;6.35;2.75;;;;;;;16.09;100.00;101126.34;5024035;28;20617;-60
2023/10/10 12:54:00;;;;;;;8.63;2.97;;;;;;;16.14;100.00;101118.88;5023727;28;20490;-61
2023/10/10 12:56:28;;;;;;;2.70;2.38;;;;;;;16.36;100.00;101112.78;5025454;28;20080;-61
2023/10/10 12:59:03;;;;;;;6.28;2.45;;;;;;;16.49;100.00;101115.38;5026477;28;20077;-61
2023/10/10 13:01:55;;;;;;;4.97;2.35;;;;;;;16.93;97.64;101114.66;5022734;28;20088;-60
2023/10/10 13:04:28;;;;;;;6.95;2.33;;;;;;;17.45;95.37;101115.00;5025075;28;20167;-61
2023/10/10 13:07:07;;;;;;;5.70;1.90;;;;;;;17.77;93.81;101115.09;5022583;28;20050;-61
2023/10/10 13:09:42;;;;;;;4.85;1.70;;;;;;;17.68;92.16;101121.97;5028535;28;20084;-61
2023/10/10 13:12:18;;;;;;;;;;;;;;;17.51;93.57;101117.16;5026315;28;20463;-59
2023/10/10 13:14:50;;;;;;;5.78;2.55;;;;;;;17.46;93.43;101111.38;5022982;28;20024;-61
2023/10/10 13:17:30;;;;;;;3.05;2.00;;;;;;;17.34;93.28;101112.38;5008720;28;20157;-61
2023/10/10 13:19:58;;;;;;;5.00;1.80;;;;;;;17.02;95.85;101106.91;5023477;28;20050;-60
2023/10/10 13:22:29;;;;;;;5.55;1.98;;;;;;;17.30;95.72;101110.91;5020784;28;20136;-60
2023/10/10 13:24:56;;;;;;;6.90;2.72;;;;;;;17.51;94.04;101114.50;5022272;28;20500;-62
2023/10/10 13:27:25;;;;;;;4.55;1.90;;;;;;;17.42;94.17;101102.78;5009629;28;20089;-60
2023/10/10 13:29:52;;;;;;;6.47;2.25;;;;;;;17.60;93.23;101100.44;5018324;28;20479;-60
2023/10/10 13:32:20;;;;;;;4.15;2.28;;;;;;;17.46;91.38;101103.38;5019047;28;20784;-60
2023/10/10 13:34:47;;;;;;;5.60;2.28;;;;;;;17.48;93.83;101105.94;5023204;28;20077;-60
2023/10/10 13:37:15;;;;;;;6.88;2.13;;;;;;;17.90;93.33;101104.28;5022968;28;20077;-62
2023/10/10 13:39:48;;;;;;;3.33;1.90;;;;;;;18.59;90.35;101104.69;5031934;28;20101;-59
2023/10/10 13:42:17;;;;;;;4.72;2.00;;;;;;;18.37;87.21;101107.47;5037010;28;20061;-58
2023/10/10 13:44:45;;;;;;;6.85;2.30;;;;;;;18.37;86.59;101111.00;5040024;28;20076;-58
2023/10/10 13:47:13;;;;;;;10.80;2.55;;;;;;;18.24;87.30;101107.69;5041881;28;20691;-60
2023/10/10 13:49:58;;;;;;;3.83;2.08;;;;;;;17.92;89.79;101108.53;5029403;28;20461;-59
2023/10/10 13:52:25;;;;;;;5.05;2.40;;;;;;;17.68;90.73;101099.84;5022332;28;20232;-60
2023/10/10 13:54:52;;;;;;;7.10;2.55;;;;;;;17.64;91.85;101103.72;5024775;28;20129;-60
2023/10/10 13:57:20;;;;;;;7.78;3.17;;;;;;;17.19;95.43;101109.94;5024538;28;20053;-60
2023/10/10 13:59:49;;;;;;;3.78;2.38;;;;;;;17.06;96.43;101103.88;5024980;28;20060;-59
2023/10/10 14:02:16;;;;;;;4.90;2.50;;;;;;;17.17;96.21;101106.56;5026836;28;20099;-61
2023/10/10 14:04:48;;;;;;;4.00;2.55;;;;;;;17.25;96.14;101102.47;5024224;28;20122;-60
2023/10/10 14:07:16;;;;;;;3.55;1.90;;;;;;;17.05;96.27;101104.84;5022282;28;20509;-58
2023/10/10 14:09:53;;;;;;;5.38;2.38;;;;;;;16.90;98.71;101106.91;5007522;28;20047;-60
2023/10/10 14:12:31;;;;;;;6.10;2.22;;;;;;;16.90;99.55;101100.75;5021744;28;20068;-60
2023/10/10 14:15:01;;;;;;;4.90;2.35;;;;;;;16.92;97.70;101098.78;5024513;28;20152;-61
2023/10/10 14:17:29;;;;;;;3.25;2.15;;;;;;;16.70;99.06;101095.09;5020973;28;20077;-61
2023/10/10 14:19:58;;;;;;;7.20;2.20;;;;;;;16.86;99.45;101088.66;5024621;28;20755;-61
2023/10/10 14:22:26;;;;;;;4.03;2.50;;;;;;;17.01;98.06;101098.06;5023422;28;20075;-61
2023/10/10 14:24:58;;;;;;;4.53;2.00;;;;;;;17.02;97.89;101093.59;5023343;28;20127;-61
2023/10/10 14:27:26;;;;;;;2.78;2.00;;;;;;;16.99;97.19;101099.19;5023403;28;20073;-63
2023/10/10 14:29:53;;;;;;;7.07;2.13;;;;;;;16.55;99.05;101095.44;5025818;28;20065;-59
2023/10/10 14:32:27;;;;;;;4.80;2.38;;;;;;;16.55;99.76;101090.97;5023597;28;20057;-62
2023/10/10 14:35:08;;;;;;;4.35;2.05;;;;;;;16.56;100.00;101095.31;5022135;28;20132;-61
2023/10/10 14:37:35;;;;;;;3.28;2.03;;;;;;;16.57;100.00;101096.16;5021609;28;20775;-62
2023/10/10 14:40:23;;;;;;;3.50;2.03;;;;;;;16.67;100.00;101091.84;5023795;28;20163;-61
2023/10/10 14:42:53;;;;;;;4.38;2.10;;;;;;;16.58;100.00;101093.41;5020842;28;20564;-59